sensor_id;sensor_type;location;lat;lon;timestamp;P1;durP1;ratioP1;P2;durP2;ratioP2
11998;SDS011;40817;51.520;9.954;2023-07-29T00:01:24;2.78;;;1.50;;
11998;SDS011;40817;51.520;9.954;2023-07-29T00:03:52;2.13;;;1.40;;
11998;SDS011;40817;51.520;9.954;2023-07-29T00:06:19;3.58;;;1.38;;
11998;SDS011;40817;51.520;9.954;2023-07-29T00:08:46;4.07;;;1.58;;
11998;SDS011;40817;51.520;9.954;2023-07-29T00:11:14;2.63;;;1.70;;
11998;SDS011;40817;51.520;9.954;2023-07-29T00:13:42;3.45;;;1.60;;
11998;SDS011;40817;51.520;9.954;2023-07-29T00:16:11;2.25;;;1.55;;
11998;SDS011;40817;51.520;9.954;2023-07-29T00:18:40;4.28;;;1.75;;
11998;SDS011;40817;51.520;9.954;2023-07-29T00:21:08;2.35;;;1.40;;
11998;SDS011;40817;51.520;9.954;2023-07-29T00:23:36;3.78;;;1.58;;
11998;SDS011;40817;51.520;9.954;2023-07-29T00:26:03;1.98;;;1.20;;
11998;SDS011;40817;51.520;9.954;2023-07-29T00:28:31;2.33;;;1.38;;
11998;SDS011;40817;51.520;9.954;2023-07-29T00:30:58;1.70;;;1.30;;
11998;SDS011;40817;51.520;9.954;2023-07-29T00:33:27;2.10;;;1.33;;
11998;SDS011;40817;51.520;9.954;2023-07-29T00:35:54;2.20;;;1.33;;
11998;SDS011;40817;51.520;9.954;2023-07-29T00:38:22;2.60;;;1.30;;
11998;SDS011;40817;51.520;9.954;2023-07-29T00:40:49;1.85;;;1.40;;
11998;SDS011;40817;51.520;9.954;2023-07-29T00:43:21;2.20;;;1.20;;
11998;SDS011;40817;51.520;9.954;2023-07-29T00:45:49;1.92;;;1.48;;
11998;SDS011;40817;51.520;9.954;2023-07-29T00:48:16;2.15;;;1.65;;
11998;SDS011;40817;51.520;9.954;2023-07-29T00:50:45;2.22;;;1.45;;
11998;SDS011;40817;51.520;9.954;2023-07-29T00:53:13;2.50;;;1.70;;
11998;SDS011;40817;51.520;9.954;2023-07-29T00:55:40;3.22;;;1.80;;
11998;SDS011;40817;51.520;9.954;2023-07-29T00:58:08;2.03;;;1.23;;
11998;SDS011;40817;51.520;9.954;2023-07-29T01:00:36;2.50;;;1.50;;
11998;SDS011;40817;51.520;9.954;2023-07-29T01:03:04;1.98;;;1.33;;
11998;SDS011;40817;51.520;9.954;2023-07-29T01:05:32;3.05;;;1.83;;
11998;SDS011;40817;51.520;9.954;2023-07-29T01:08:16;3.63;;;1.58;;
11998;SDS011;40817;51.520;9.954;2023-07-29T01:11:08;2.00;;;1.40;;
11998;SDS011;40817;51.520;9.954;2023-07-29T01:13:58;2.25;;;1.48;;
11998;SDS011;40817;51.520;9.954;2023-07-29T01:16:38;3.55;;;1.73;;
11998;SDS011;40817;51.520;9.954;2023-07-29T01:19:13;3.15;;;1.65;;
11998;SDS011;40817;51.520;9.954;2023-07-29T01:22:05;7.53;;;1.67;;
11998;SDS011;40817;51.520;9.954;2023-07-29T01:24:35;3.45;;;1.52;;
11998;SDS011;40817;51.520;9.954;2023-07-29T01:27:03;3.72;;;1.63;;
11998;SDS011;40817;51.520;9.954;2023-07-29T01:29:31;2.67;;;1.60;;
11998;SDS011;40817;51.520;9.954;2023-07-29T01:32:01;2.80;;;1.50;;
11998;SDS011;40817;51.520;9.954;2023-07-29T01:34:39;3.88;;;1.50;;
11998;SDS011;40817;51.520;9.954;2023-07-29T01:39:47;2.42;;;1.50;;
11998;SDS011;40817;51.520;9.954;2023-07-29T01:42:17;3.10;;;2.05;;
11998;SDS011;40817;51.520;9.954;2023-07-29T01:44:44;3.33;;;1.75;;
11998;SDS011;40817;51.520;9.954;2023-07-29T01:47:12;3.72;;;1.83;;
11998;SDS011;40817;51.520;9.954;2023-07-29T01:49:40;2.20;;;1.88;;
11998;SDS011;40817;51.520;9.954;2023-07-29T01:52:15;4.55;;;1.60;;
11998;SDS011;40817;51.520;9.954;2023-07-29T01:54:44;4.63;;;1.80;;
11998;SDS011;40817;51.520;9.954;2023-07-29T01:57:13;2.50;;;1.70;;
11998;SDS011;40817;51.520;9.954;2023-07-29T01:59:41;2.42;;;1.60;;
11998;SDS011;40817;51.520;9.954;2023-07-29T02:02:08;2.30;;;1.58;;
11998;SDS011;40817;51.520;9.954;2023-07-29T02:04:36;2.35;;;1.65;;
11998;SDS011;40817;51.520;9.954;2023-07-29T02:07:04;2.33;;;1.40;;
11998;SDS011;40817;51.520;9.954;2023-07-29T02:09:32;4.95;;;1.67;;
11998;SDS011;40817;51.520;9.954;2023-07-29T02:11:59;2.70;;;1.90;;
11998;SDS011;40817;51.520;9.954;2023-07-29T02:14:29;5.70;;;1.83;;
11998;SDS011;40817;51.520;9.954;2023-07-29T02:16:56;4.10;;;1.67;;
11998;SDS011;40817;51.520;9.954;2023-07-29T02:19:23;3.58;;;1.80;;
11998;SDS011;40817;51.520;9.954;2023-07-29T02:21:51;2.22;;;1.67;;
11998;SDS011;40817;51.520;9.954;2023-07-29T02:24:18;5.20;;;1.80;;
11998;SDS011;40817;51.520;9.954;2023-07-29T02:26:46;3.22;;;1.50;;
11998;SDS011;40817;51.520;9.954;2023-07-29T02:29:13;5.93;;;2.17;;
11998;SDS011;40817;51.520;9.954;2023-07-29T02:31:42;2.92;;;1.67;;
11998;SDS011;40817;51.520;9.954;2023-07-29T02:34:09;6.75;;;2.42;;
11998;SDS011;40817;51.520;9.954;2023-07-29T02:36:36;4.32;;;2.30;;
11998;SDS011;40817;51.520;9.954;2023-07-29T02:39:04;4.38;;;1.92;;
11998;SDS011;40817;51.520;9.954;2023-07-29T02:41:31;6.72;;;1.70;;
11998;SDS011;40817;51.520;9.954;2023-07-29T02:43:58;3.03;;;1.90;;
11998;SDS011;40817;51.520;9.954;2023-07-29T02:46:26;5.15;;;1.90;;
11998;SDS011;40817;51.520;9.954;2023-07-29T02:48:55;5.20;;;1.67;;
11998;SDS011;40817;51.520;9.954;2023-07-29T02:51:22;5.95;;;1.88;;
11998;SDS011;40817;51.520;9.954;2023-07-29T02:53:49;8.63;;;2.05;;
11998;SDS011;40817;51.520;9.954;2023-07-29T02:56:17;4.50;;;1.70;;
11998;SDS011;40817;51.520;9.954;2023-07-29T02:58:45;5.82;;;2.25;;
11998;SDS011;40817;51.520;9.954;2023-07-29T03:01:12;5.95;;;1.83;;
11998;SDS011;40817;51.520;9.954;2023-07-29T03:04:01;4.10;;;1.88;;
11998;SDS011;40817;51.520;9.954;2023-07-29T03:06:29;5.88;;;1.55;;
11998;SDS011;40817;51.520;9.954;2023-07-29T03:08:57;3.47;;;1.60;;
11998;SDS011;40817;51.520;9.954;2023-07-29T03:11:24;4.40;;;1.60;;
11998;SDS011;40817;51.520;9.954;2023-07-29T03:13:51;3.78;;;2.10;;
11998;SDS011;40817;51.520;9.954;2023-07-29T03:16:19;5.05;;;1.98;;
11998;SDS011;40817;51.520;9.954;2023-07-29T03:18:48;4.10;;;1.75;;
11998;SDS011;40817;51.520;9.954;2023-07-29T03:21:17;4.00;;;1.40;;
11998;SDS011;40817;51.520;9.954;2023-07-29T03:23:44;3.42;;;1.50;;
11998;SDS011;40817;51.520;9.954;2023-07-29T03:26:12;5.03;;;1.52;;
11998;SDS011;40817;51.520;9.954;2023-07-29T03:28:39;4.22;;;1.85;;
11998;SDS011;40817;51.520;9.954;2023-07-29T03:31:09;4.20;;;1.40;;
11998;SDS011;40817;51.520;9.954;2023-07-29T03:33:37;2.15;;;1.50;;
11998;SDS011;40817;51.520;9.954;2023-07-29T03:36:05;3.60;;;1.25;;
11998;SDS011;40817;51.520;9.954;2023-07-29T03:38:34;1.75;;;1.27;;
11998;SDS011;40817;51.520;9.954;2023-07-29T03:41:05;2.05;;;1.30;;
11998;SDS011;40817;51.520;9.954;2023-07-29T03:43:33;6.07;;;1.50;;
11998;SDS011;40817;51.520;9.954;2023-07-29T03:46:01;2.60;;;1.75;;
11998;SDS011;40817;51.520;9.954;2023-07-29T03:48:28;2.55;;;1.35;;
11998;SDS011;40817;51.520;9.954;2023-07-29T03:50:56;2.03;;;1.30;;
11998;SDS011;40817;51.520;9.954;2023-07-29T03:53:23;5.22;;;1.40;;
11998;SDS011;40817;51.520;9.954;2023-07-29T03:55:53;4.20;;;1.50;;
11998;SDS011;40817;51.520;9.954;2023-07-29T03:58:20;2.70;;;1.65;;
11998;SDS011;40817;51.520;9.954;2023-07-29T04:00:47;2.83;;;1.50;;
11998;SDS011;40817;51.520;9.954;2023-07-29T04:03:16;3.60;;;1.25;;
11998;SDS011;40817;51.520;9.954;2023-07-29T04:05:44;2.50;;;1.27;;
11998;SDS011;40817;51.520;9.954;2023-07-29T04:08:11;3.13;;;1.45;;
11998;SDS011;40817;51.520;9.954;2023-07-29T04:10:39;5.90;;;1.52;;
11998;SDS011;40817;51.520;9.954;2023-07-29T04:13:07;2.00;;;1.40;;
11998;SDS011;40817;51.520;9.954;2023-07-29T04:15:35;1.65;;;1.25;;
11998;SDS011;40817;51.520;9.954;2023-07-29T04:18:03;2.65;;;1.30;;
11998;SDS011;40817;51.520;9.954;2023-07-29T04:20:30;2.03;;;1.33;;
11998;SDS011;40817;51.520;9.954;2023-07-29T04:22:59;1.80;;;1.25;;
11998;SDS011;40817;51.520;9.954;2023-07-29T04:25:27;5.03;;;1.73;;
11998;SDS011;40817;51.520;9.954;2023-07-29T04:27:54;2.45;;;1.20;;
11998;SDS011;40817;51.520;9.954;2023-07-29T04:30:24;5.55;;;1.55;;
11998;SDS011;40817;51.520;9.954;2023-07-29T04:32:52;3.22;;;1.88;;
11998;SDS011;40817;51.520;9.954;2023-07-29T04:35:19;5.97;;;1.83;;
11998;SDS011;40817;51.520;9.954;2023-07-29T04:37:46;4.30;;;1.42;;
11998;SDS011;40817;51.520;9.954;2023-07-29T04:40:15;4.95;;;1.85;;
11998;SDS011;40817;51.520;9.954;2023-07-29T04:42:43;5.50;;;2.05;;
11998;SDS011;40817;51.520;9.954;2023-07-29T04:45:12;2.55;;;1.60;;
11998;SDS011;40817;51.520;9.954;2023-07-29T04:47:41;2.13;;;1.65;;
11998;SDS011;40817;51.520;9.954;2023-07-29T04:50:09;2.78;;;1.40;;
11998;SDS011;40817;51.520;9.954;2023-07-29T04:52:36;4.00;;;1.52;;
11998;SDS011;40817;51.520;9.954;2023-07-29T04:55:04;4.13;;;1.67;;
11998;SDS011;40817;51.520;9.954;2023-07-29T04:57:33;2.15;;;1.55;;
11998;SDS011;40817;51.520;9.954;2023-07-29T05:00:00;4.47;;;1.77;;
11998;SDS011;40817;51.520;9.954;2023-07-29T05:02:29;5.47;;;1.70;;
11998;SDS011;40817;51.520;9.954;2023-07-29T05:04:58;3.15;;;1.63;;
11998;SDS011;40817;51.520;9.954;2023-07-29T05:07:25;3.58;;;1.58;;
11998;SDS011;40817;51.520;9.954;2023-07-29T05:09:52;4.28;;;1.60;;
11998;SDS011;40817;51.520;9.954;2023-07-29T05:12:20;3.33;;;1.40;;
11998;SDS011;40817;51.520;9.954;2023-07-29T05:14:48;5.65;;;1.70;;
11998;SDS011;40817;51.520;9.954;2023-07-29T05:17:15;2.45;;;1.60;;
11998;SDS011;40817;51.520;9.954;2023-07-29T05:19:43;2.60;;;1.50;;
11998;SDS011;40817;51.520;9.954;2023-07-29T05:22:12;2.72;;;1.70;;
11998;SDS011;40817;51.520;9.954;2023-07-29T05:24:39;3.22;;;1.67;;
11998;SDS011;40817;51.520;9.954;2023-07-29T05:27:06;3.38;;;1.85;;
11998;SDS011;40817;51.520;9.954;2023-07-29T05:29:34;4.43;;;1.70;;
11998;SDS011;40817;51.520;9.954;2023-07-29T05:32:01;4.10;;;2.33;;
11998;SDS011;40817;51.520;9.954;2023-07-29T05:34:30;2.20;;;1.67;;
11998;SDS011;40817;51.520;9.954;2023-07-29T05:36:57;4.07;;;1.95;;
11998;SDS011;40817;51.520;9.954;2023-07-29T05:39:26;2.80;;;1.88;;
11998;SDS011;40817;51.520;9.954;2023-07-29T05:41:53;3.00;;;2.10;;
11998;SDS011;40817;51.520;9.954;2023-07-29T05:44:21;4.50;;;2.00;;
11998;SDS011;40817;51.520;9.954;2023-07-29T05:46:48;3.35;;;1.70;;
11998;SDS011;40817;51.520;9.954;2023-07-29T05:49:16;2.70;;;1.90;;
11998;SDS011;40817;51.520;9.954;2023-07-29T05:51:43;7.53;;;2.45;;
11998;SDS011;40817;51.520;9.954;2023-07-29T05:54:11;3.45;;;2.03;;
11998;SDS011;40817;51.520;9.954;2023-07-29T05:56:40;3.03;;;1.90;;
11998;SDS011;40817;51.520;9.954;2023-07-29T05:59:07;2.30;;;1.77;;
11998;SDS011;40817;51.520;9.954;2023-07-29T06:01:37;4.05;;;2.15;;
11998;SDS011;40817;51.520;9.954;2023-07-29T06:04:04;2.60;;;2.20;;
11998;SDS011;40817;51.520;9.954;2023-07-29T06:06:31;2.80;;;2.10;;
11998;SDS011;40817;51.520;9.954;2023-07-29T06:08:59;4.10;;;2.30;;
11998;SDS011;40817;51.520;9.954;2023-07-29T06:11:26;3.35;;;2.30;;
11998;SDS011;40817;51.520;9.954;2023-07-29T06:13:55;3.05;;;2.30;;
11998;SDS011;40817;51.520;9.954;2023-07-29T06:16:23;3.67;;;2.55;;
11998;SDS011;40817;51.520;9.954;2023-07-29T06:18:51;3.92;;;2.30;;
11998;SDS011;40817;51.520;9.954;2023-07-29T06:21:18;3.97;;;2.70;;
11998;SDS011;40817;51.520;9.954;2023-07-29T06:23:46;7.68;;;2.67;;
11998;SDS011;40817;51.520;9.954;2023-07-29T06:26:14;3.10;;;2.47;;
11998;SDS011;40817;51.520;9.954;2023-07-29T06:28:41;2.83;;;2.50;;
11998;SDS011;40817;51.520;9.954;2023-07-29T06:31:10;4.38;;;2.50;;
11998;SDS011;40817;51.520;9.954;2023-07-29T06:33:38;3.45;;;2.80;;
11998;SDS011;40817;51.520;9.954;2023-07-29T06:36:05;4.65;;;2.60;;
11998;SDS011;40817;51.520;9.954;2023-07-29T06:38:33;4.30;;;2.53;;
11998;SDS011;40817;51.520;9.954;2023-07-29T06:41:01;3.38;;;2.70;;
11998;SDS011;40817;51.520;9.954;2023-07-29T06:43:28;4.18;;;2.60;;
11998;SDS011;40817;51.520;9.954;2023-07-29T06:45:56;2.95;;;2.45;;
11998;SDS011;40817;51.520;9.954;2023-07-29T06:48:25;3.30;;;2.67;;
11998;SDS011;40817;51.520;9.954;2023-07-29T06:50:53;2.63;;;2.42;;
11998;SDS011;40817;51.520;9.954;2023-07-29T06:53:25;5.20;;;2.22;;
11998;SDS011;40817;51.520;9.954;2023-07-29T06:55:53;4.78;;;2.53;;
11998;SDS011;40817;51.520;9.954;2023-07-29T06:58:21;3.47;;;2.40;;
11998;SDS011;40817;51.520;9.954;2023-07-29T07:00:48;3.55;;;3.05;;
11998;SDS011;40817;51.520;9.954;2023-07-29T07:03:16;3.78;;;2.80;;
11998;SDS011;40817;51.520;9.954;2023-07-29T07:05:44;3.80;;;2.70;;
11998;SDS011;40817;51.520;9.954;2023-07-29T07:08:12;3.13;;;2.63;;
11998;SDS011;40817;51.520;9.954;2023-07-29T07:10:39;3.17;;;2.65;;
11998;SDS011;40817;51.520;9.954;2023-07-29T07:13:07;3.95;;;2.78;;
11998;SDS011;40817;51.520;9.954;2023-07-29T07:15:35;2.78;;;2.50;;
11998;SDS011;40817;51.520;9.954;2023-07-29T07:18:03;2.97;;;2.67;;
11998;SDS011;40817;51.520;9.954;2023-07-29T07:20:30;4.28;;;2.08;;
11998;SDS011;40817;51.520;9.954;2023-07-29T07:22:59;3.20;;;2.53;;
11998;SDS011;40817;51.520;9.954;2023-07-29T07:25:27;4.15;;;2.67;;
11998;SDS011;40817;51.520;9.954;2023-07-29T07:27:54;4.95;;;2.42;;
11998;SDS011;40817;51.520;9.954;2023-07-29T07:30:22;3.20;;;2.38;;
11998;SDS011;40817;51.520;9.954;2023-07-29T07:32:49;2.88;;;2.08;;
11998;SDS011;40817;51.520;9.954;2023-07-29T07:35:16;4.43;;;2.38;;
11998;SDS011;40817;51.520;9.954;2023-07-29T07:37:44;5.43;;;2.30;;
11998;SDS011;40817;51.520;9.954;2023-07-29T07:40:13;2.83;;;2.53;;
11998;SDS011;40817;51.520;9.954;2023-07-29T07:42:40;3.00;;;2.33;;
11998;SDS011;40817;51.520;9.954;2023-07-29T07:45:08;3.05;;;2.35;;
11998;SDS011;40817;51.520;9.954;2023-07-29T07:47:36;3.20;;;2.30;;
11998;SDS011;40817;51.520;9.954;2023-07-29T07:50:03;4.00;;;2.53;;
11998;SDS011;40817;51.520;9.954;2023-07-29T07:52:32;5.05;;;2.60;;
11998;SDS011;40817;51.520;9.954;2023-07-29T07:54:59;3.25;;;2.60;;
11998;SDS011;40817;51.520;9.954;2023-07-29T07:57:29;2.60;;;2.33;;
11998;SDS011;40817;51.520;9.954;2023-07-29T07:59:57;3.30;;;2.33;;
11998;SDS011;40817;51.520;9.954;2023-07-29T08:02:24;4.60;;;2.60;;
11998;SDS011;40817;51.520;9.954;2023-07-29T08:04:51;3.47;;;2.28;;
11998;SDS011;40817;51.520;9.954;2023-07-29T08:07:19;6.72;;;3.10;;
11998;SDS011;40817;51.520;9.954;2023-07-29T08:09:46;2.90;;;2.60;;
11998;SDS011;40817;51.520;9.954;2023-07-29T08:12:13;2.45;;;2.20;;
11998;SDS011;40817;51.520;9.954;2023-07-29T08:14:42;4.65;;;2.45;;
11998;SDS011;40817;51.520;9.954;2023-07-29T08:17:09;2.33;;;2.13;;
11998;SDS011;40817;51.520;9.954;2023-07-29T08:19:37;3.00;;;2.33;;
11998;SDS011;40817;51.520;9.954;2023-07-29T08:22:04;2.90;;;2.30;;
11998;SDS011;40817;51.520;9.954;2023-07-29T08:24:32;2.67;;;2.28;;
11998;SDS011;40817;51.520;9.954;2023-07-29T08:27:00;2.90;;;2.50;;
11998;SDS011;40817;51.520;9.954;2023-07-29T08:29:28;3.30;;;2.65;;
11998;SDS011;40817;51.520;9.954;2023-07-29T08:31:57;2.40;;;2.20;;
11998;SDS011;40817;51.520;9.954;2023-07-29T08:34:25;2.55;;;2.05;;
11998;SDS011;40817;51.520;9.954;2023-07-29T08:36:52;5.18;;;2.67;;
11998;SDS011;40817;51.520;9.954;2023-07-29T08:39:20;3.67;;;2.35;;
11998;SDS011;40817;51.520;9.954;2023-07-29T08:41:49;2.97;;;2.47;;
11998;SDS011;40817;51.520;9.954;2023-07-29T08:44:26;2.80;;;2.20;;
11998;SDS011;40817;51.520;9.954;2023-07-29T08:47:03;2.80;;;2.33;;
11998;SDS011;40817;51.520;9.954;2023-07-29T08:49:31;2.80;;;2.25;;
11998;SDS011;40817;51.520;9.954;2023-07-29T08:51:59;4.63;;;2.50;;
11998;SDS011;40817;51.520;9.954;2023-07-29T08:54:28;2.72;;;2.25;;
11998;SDS011;40817;51.520;9.954;2023-07-29T08:56:56;2.72;;;2.22;;
11998;SDS011;40817;51.520;9.954;2023-07-29T08:59:24;3.03;;;2.40;;
11998;SDS011;40817;51.520;9.954;2023-07-29T09:01:53;4.78;;;2.10;;
11998;SDS011;40817;51.520;9.954;2023-07-29T09:04:23;2.70;;;2.10;;
11998;SDS011;40817;51.520;9.954;2023-07-29T09:06:51;2.88;;;2.03;;
11998;SDS011;40817;51.520;9.954;2023-07-29T09:09:20;2.70;;;2.35;;
11998;SDS011;40817;51.520;9.954;2023-07-29T09:11:48;4.05;;;2.05;;
11998;SDS011;40817;51.520;9.954;2023-07-29T09:14:16;3.10;;;2.30;;
11998;SDS011;40817;51.520;9.954;2023-07-29T09:16:44;5.18;;;2.40;;
11998;SDS011;40817;51.520;9.954;2023-07-29T09:19:12;2.78;;;1.92;;
11998;SDS011;40817;51.520;9.954;2023-07-29T09:21:42;4.28;;;2.10;;
11998;SDS011;40817;51.520;9.954;2023-07-29T09:24:12;2.38;;;1.73;;
11998;SDS011;40817;51.520;9.954;2023-07-29T09:26:48;4.20;;;2.30;;
11998;SDS011;40817;51.520;9.954;2023-07-29T09:29:16;5.65;;;2.47;;
11998;SDS011;40817;51.520;9.954;2023-07-29T09:31:49;2.95;;;2.05;;
11998;SDS011;40817;51.520;9.954;2023-07-29T09:34:17;5.18;;;2.03;;
11998;SDS011;40817;51.520;9.954;2023-07-29T09:36:46;3.65;;;1.80;;
11998;SDS011;40817;51.520;9.954;2023-07-29T09:39:17;2.78;;;1.88;;
11998;SDS011;40817;51.520;9.954;2023-07-29T09:41:47;3.45;;;2.08;;
11998;SDS011;40817;51.520;9.954;2023-07-29T09:44:15;2.53;;;2.00;;
11998;SDS011;40817;51.520;9.954;2023-07-29T09:46:45;2.83;;;1.92;;
11998;SDS011;40817;51.520;9.954;2023-07-29T09:49:13;2.55;;;1.70;;
11998;SDS011;40817;51.520;9.954;2023-07-29T09:51:41;3.42;;;1.95;;
11998;SDS011;40817;51.520;9.954;2023-07-29T09:54:10;3.90;;;1.75;;
11998;SDS011;40817;51.520;9.954;2023-07-29T09:56:39;4.97;;;1.95;;
11998;SDS011;40817;51.520;9.954;2023-07-29T09:59:09;3.80;;;2.10;;
11998;SDS011;40817;51.520;9.954;2023-07-29T10:01:37;2.80;;;1.95;;
11998;SDS011;40817;51.520;9.954;2023-07-29T10:04:05;3.85;;;1.77;;
11998;SDS011;40817;51.520;9.954;2023-07-29T10:06:34;1.80;;;1.63;;
11998;SDS011;40817;51.520;9.954;2023-07-29T10:09:02;3.35;;;1.77;;
11998;SDS011;40817;51.520;9.954;2023-07-29T10:11:33;3.47;;;1.70;;
11998;SDS011;40817;51.520;9.954;2023-07-29T10:14:01;2.22;;;1.70;;
11998;SDS011;40817;51.520;9.954;2023-07-29T10:16:29;2.92;;;1.80;;
11998;SDS011;40817;51.520;9.954;2023-07-29T10:18:57;4.78;;;1.90;;
11998;SDS011;40817;51.520;9.954;2023-07-29T10:21:26;2.28;;;1.55;;
11998;SDS011;40817;51.520;9.954;2023-07-29T10:23:55;2.65;;;1.83;;
11998;SDS011;40817;51.520;9.954;2023-07-29T10:26:33;2.40;;;2.00;;
11998;SDS011;40817;51.520;9.954;2023-07-29T10:29:02;2.42;;;1.80;;
11998;SDS011;40817;51.520;9.954;2023-07-29T10:31:33;3.80;;;2.40;;
11998;SDS011;40817;51.520;9.954;2023-07-29T10:34:02;4.90;;;2.10;;
11998;SDS011;40817;51.520;9.954;2023-07-29T10:36:30;2.20;;;1.88;;
11998;SDS011;40817;51.520;9.954;2023-07-29T10:38:57;3.30;;;2.10;;
11998;SDS011;40817;51.520;9.954;2023-07-29T10:41:33;2.78;;;2.47;;
11998;SDS011;40817;51.520;9.954;2023-07-29T10:47:19;3.40;;;2.10;;
11998;SDS011;40817;51.520;9.954;2023-07-29T10:49:50;2.50;;;2.05;;
11998;SDS011;40817;51.520;9.954;2023-07-29T10:52:30;2.65;;;2.17;;
11998;SDS011;40817;51.520;9.954;2023-07-29T10:58:11;3.45;;;2.20;;
11998;SDS011;40817;51.520;9.954;2023-07-29T11:00:42;4.70;;;2.22;;
11998;SDS011;40817;51.520;9.954;2023-07-29T11:03:11;2.80;;;2.33;;
11998;SDS011;40817;51.520;9.954;2023-07-29T11:05:41;5.30;;;2.75;;
11998;SDS011;40817;51.520;9.954;2023-07-29T11:08:19;4.07;;;2.33;;
11998;SDS011;40817;51.520;9.954;2023-07-29T11:11:00;3.08;;;2.28;;
11998;SDS011;40817;51.520;9.954;2023-07-29T11:13:33;3.10;;;1.90;;
11998;SDS011;40817;51.520;9.954;2023-07-29T11:16:03;5.80;;;2.40;;
11998;SDS011;40817;51.520;9.954;2023-07-29T11:18:33;4.05;;;2.55;;
11998;SDS011;40817;51.520;9.954;2023-07-29T11:21:02;2.28;;;1.90;;
11998;SDS011;40817;51.520;9.954;2023-07-29T11:23:31;3.88;;;2.30;;
11998;SDS011;40817;51.520;9.954;2023-07-29T11:26:01;4.47;;;2.22;;
11998;SDS011;40817;51.520;9.954;2023-07-29T11:28:30;4.15;;;2.35;;
11998;SDS011;40817;51.520;9.954;2023-07-29T11:31:06;3.00;;;2.20;;
11998;SDS011;40817;51.520;9.954;2023-07-29T11:33:34;5.07;;;2.20;;
11998;SDS011;40817;51.520;9.954;2023-07-29T11:36:01;2.97;;;1.90;;
11998;SDS011;40817;51.520;9.954;2023-07-29T11:38:29;4.80;;;2.15;;
11998;SDS011;40817;51.520;9.954;2023-07-29T11:41:02;2.28;;;2.08;;
11998;SDS011;40817;51.520;9.954;2023-07-29T11:43:34;2.33;;;1.88;;
11998;SDS011;40817;51.520;9.954;2023-07-29T11:46:03;2.63;;;1.92;;
11998;SDS011;40817;51.520;9.954;2023-07-29T11:48:32;3.67;;;2.25;;
11998;SDS011;40817;51.520;9.954;2023-07-29T11:51:00;2.55;;;1.98;;
11998;SDS011;40817;51.520;9.954;2023-07-29T11:53:28;5.22;;;2.42;;
11998;SDS011;40817;51.520;9.954;2023-07-29T11:55:56;3.10;;;2.00;;
11998;SDS011;40817;51.520;9.954;2023-07-29T11:58:25;3.55;;;2.20;;
11998;SDS011;40817;51.520;9.954;2023-07-29T12:00:53;3.53;;;2.28;;
11998;SDS011;40817;51.520;9.954;2023-07-29T12:03:22;2.58;;;2.08;;
11998;SDS011;40817;51.520;9.954;2023-07-29T12:05:50;5.68;;;2.50;;
11998;SDS011;40817;51.520;9.954;2023-07-29T12:08:18;4.55;;;2.47;;
11998;SDS011;40817;51.520;9.954;2023-07-29T12:10:46;4.03;;;2.03;;
11998;SDS011;40817;51.520;9.954;2023-07-29T12:13:14;2.60;;;1.83;;
11998;SDS011;40817;51.520;9.954;2023-07-29T12:15:41;2.25;;;1.85;;
11998;SDS011;40817;51.520;9.954;2023-07-29T12:18:09;2.67;;;2.00;;
11998;SDS011;40817;51.520;9.954;2023-07-29T12:20:39;3.33;;;1.98;;
11998;SDS011;40817;51.520;9.954;2023-07-29T12:23:07;1.73;;;1.50;;
11998;SDS011;40817;51.520;9.954;2023-07-29T12:25:35;4.30;;;1.90;;
11998;SDS011;40817;51.520;9.954;2023-07-29T12:28:03;2.92;;;2.20;;
11998;SDS011;40817;51.520;9.954;2023-07-29T12:30:32;2.33;;;1.67;;
11998;SDS011;40817;51.520;9.954;2023-07-29T12:33:00;4.05;;;1.80;;
11998;SDS011;40817;51.520;9.954;2023-07-29T12:35:36;2.28;;;1.40;;
11998;SDS011;40817;51.520;9.954;2023-07-29T12:38:06;2.30;;;1.75;;
11998;SDS011;40817;51.520;9.954;2023-07-29T12:40:37;2.10;;;1.73;;
11998;SDS011;40817;51.520;9.954;2023-07-29T12:43:07;2.20;;;1.30;;
11998;SDS011;40817;51.520;9.954;2023-07-29T12:45:36;3.55;;;1.70;;
11998;SDS011;40817;51.520;9.954;2023-07-29T12:48:05;2.67;;;1.63;;
11998;SDS011;40817;51.520;9.954;2023-07-29T12:50:32;2.63;;;1.60;;
11998;SDS011;40817;51.520;9.954;2023-07-29T12:53:00;2.70;;;1.55;;
11998;SDS011;40817;51.520;9.954;2023-07-29T12:55:29;3.22;;;1.25;;
11998;SDS011;40817;51.520;9.954;2023-07-29T12:58:00;3.38;;;1.45;;
11998;SDS011;40817;51.520;9.954;2023-07-29T13:00:27;6.93;;;1.70;;
11998;SDS011;40817;51.520;9.954;2023-07-29T13:02:55;2.15;;;1.38;;
11998;SDS011;40817;51.520;9.954;2023-07-29T13:05:23;2.05;;;1.50;;
11998;SDS011;40817;51.520;9.954;2023-07-29T13:07:51;2.00;;;1.33;;
11998;SDS011;40817;51.520;9.954;2023-07-29T13:10:18;3.38;;;1.63;;
11998;SDS011;40817;51.520;9.954;2023-07-29T13:12:47;1.85;;;1.30;;
11998;SDS011;40817;51.520;9.954;2023-07-29T13:15:16;2.65;;;1.42;;
11998;SDS011;40817;51.520;9.954;2023-07-29T13:17:44;1.50;;;1.23;;
11998;SDS011;40817;51.520;9.954;2023-07-29T13:20:12;2.30;;;1.40;;
11998;SDS011;40817;51.520;9.954;2023-07-29T13:22:40;2.30;;;1.30;;
11998;SDS011;40817;51.520;9.954;2023-07-29T13:25:08;3.65;;;1.17;;
11998;SDS011;40817;51.520;9.954;2023-07-29T13:27:35;3.05;;;1.23;;
11998;SDS011;40817;51.520;9.954;2023-07-29T13:30:07;2.30;;;1.60;;
11998;SDS011;40817;51.520;9.954;2023-07-29T13:32:36;2.17;;;1.23;;
11998;SDS011;40817;51.520;9.954;2023-07-29T13:35:04;1.75;;;1.17;;
11998;SDS011;40817;51.520;9.954;2023-07-29T13:37:32;1.90;;;1.40;;
11998;SDS011;40817;51.520;9.954;2023-07-29T13:40:00;1.85;;;1.15;;
11998;SDS011;40817;51.520;9.954;2023-07-29T13:42:28;2.05;;;1.30;;
11998;SDS011;40817;51.520;9.954;2023-07-29T13:44:55;1.65;;;1.23;;
11998;SDS011;40817;51.520;9.954;2023-07-29T13:47:24;1.88;;;1.00;;
11998;SDS011;40817;51.520;9.954;2023-07-29T13:49:52;3.08;;;1.20;;
11998;SDS011;40817;51.520;9.954;2023-07-29T13:52:19;1.73;;;0.90;;
11998;SDS011;40817;51.520;9.954;2023-07-29T13:54:47;2.78;;;1.45;;
11998;SDS011;40817;51.520;9.954;2023-07-29T13:57:14;1.67;;;1.10;;
11998;SDS011;40817;51.520;9.954;2023-07-29T13:59:42;2.53;;;1.30;;
11998;SDS011;40817;51.520;9.954;2023-07-29T14:02:10;1.55;;;1.20;;
11998;SDS011;40817;51.520;9.954;2023-07-29T14:04:39;1.55;;;1.08;;
11998;SDS011;40817;51.520;9.954;2023-07-29T14:07:06;2.45;;;1.33;;
11998;SDS011;40817;51.520;9.954;2023-07-29T14:09:34;1.63;;;1.20;;
11998;SDS011;40817;51.520;9.954;2023-07-29T14:12:03;2.47;;;1.30;;
11998;SDS011;40817;51.520;9.954;2023-07-29T14:14:31;2.70;;;1.52;;
11998;SDS011;40817;51.520;9.954;2023-07-29T14:16:59;3.88;;;1.38;;
11998;SDS011;40817;51.520;9.954;2023-07-29T14:19:26;2.83;;;1.23;;
11998;SDS011;40817;51.520;9.954;2023-07-29T14:21:55;2.20;;;1.45;;
11998;SDS011;40817;51.520;9.954;2023-07-29T14:24:23;1.50;;;1.02;;
11998;SDS011;40817;51.520;9.954;2023-07-29T14:26:50;1.63;;;1.00;;
11998;SDS011;40817;51.520;9.954;2023-07-29T14:29:18;2.33;;;1.00;;
11998;SDS011;40817;51.520;9.954;2023-07-29T14:31:46;2.10;;;1.30;;
11998;SDS011;40817;51.520;9.954;2023-07-29T14:34:13;1.70;;;1.13;;
11998;SDS011;40817;51.520;9.954;2023-07-29T14:36:41;4.38;;;1.13;;
11998;SDS011;40817;51.520;9.954;2023-07-29T14:39:10;1.30;;;0.90;;
11998;SDS011;40817;51.520;9.954;2023-07-29T14:41:37;1.63;;;1.17;;
11998;SDS011;40817;51.520;9.954;2023-07-29T14:44:05;1.60;;;0.90;;
11998;SDS011;40817;51.520;9.954;2023-07-29T14:46:33;1.35;;;0.90;;
11998;SDS011;40817;51.520;9.954;2023-07-29T14:49:01;3.85;;;1.00;;
11998;SDS011;40817;51.520;9.954;2023-07-29T14:51:29;4.10;;;1.92;;
11998;SDS011;40817;51.520;9.954;2023-07-29T14:53:56;2.40;;;1.33;;
11998;SDS011;40817;51.520;9.954;2023-07-29T14:56:25;1.90;;;1.30;;
11998;SDS011;40817;51.520;9.954;2023-07-29T14:58:52;2.13;;;1.10;;
11998;SDS011;40817;51.520;9.954;2023-07-29T15:01:20;1.90;;;1.20;;
11998;SDS011;40817;51.520;9.954;2023-07-29T15:03:47;1.77;;;1.33;;
11998;SDS011;40817;51.520;9.954;2023-07-29T15:06:15;4.03;;;1.13;;